createdAt,value
2016-08-12T00:00:00.001Z,90.89
2016-08-12T00:00:59.509Z,91.03
2016-08-12T00:01:59.525Z,91.51
2016-08-12T00:02:59.470Z,92.46
2016-08-12T00:03:59.483Z,91.94
2016-08-12T00:04:59.481Z,92.36
2016-08-12T00:05:59.494Z,91.41
2016-08-12T00:06:59.543Z,91.22
2016-08-12T00:07:59.431Z,91.51
2016-08-12T00:08:59.427Z,91.41
2016-08-12T00:09:59.417Z,91.89
2016-08-12T00:10:59.444Z,91.89
2016-08-12T00:11:59.411Z,92.36
2016-08-12T00:12:59.404Z,92.27
2016-08-12T00:13:59.409Z,92.74
2016-08-12T00:14:59.383Z,91.99
2016-08-12T00:15:59.390Z,92.65
2016-08-12T00:16:59.384Z,92.36
2016-08-12T00:17:59.354Z,92.46
2016-08-12T00:18:59.357Z,92.36
2016-08-12T00:19:59.348Z,92.46
2016-08-12T00:20:59.344Z,92.27
2016-08-12T00:21:59.335Z,92.55
2016-08-12T00:22:59.314Z,92.36
2016-08-12T00:23:59.331Z,93.32
2016-08-12T00:24:59.312Z,93.32
2016-08-12T00:25:59.294Z,93.03
2016-08-12T00:26:59.289Z,93.13
2016-08-12T00:27:59.276Z,93.6
2016-08-12T00:28:59.978Z,93.98
2016-08-12T00:29:59.269Z,93.79
2016-08-12T00:30:59.264Z,93.6
2016-08-12T00:31:59.270Z,94.27
2016-08-12T00:32:59.259Z,94.08
2016-08-12T00:33:59.237Z,94.56
2016-08-12T00:34:59.230Z,94.65
2016-08-12T00:35:59.214Z,93.79
2016-08-12T00:36:59.237Z,93.7
2016-08-12T00:37:59.210Z,93.89
2016-08-12T00:38:59.224Z,94.46
2016-08-12T00:39:59.197Z,94.46
2016-08-12T00:40:59.176Z,94.27
2016-08-12T00:41:59.171Z,94.37
2016-08-12T00:42:59.191Z,94.46
2016-08-12T00:43:59.174Z,94.08
2016-08-12T00:44:59.173Z,94.46
2016-08-12T00:45:59.143Z,94.27
2016-08-12T00:46:59.139Z,94.08
2016-08-12T00:48:59.123Z,94.56
2016-08-12T00:49:59.136Z,94.84
2016-08-12T00:50:59.126Z,94.65
2016-08-12T00:51:59.105Z,94.27
2016-08-12T00:52:59.806Z,94.74
2016-08-12T00:53:59.119Z,94.65
2016-08-12T00:54:59.300Z,95.32
2016-08-12T00:55:59.067Z,94.93
2016-08-12T00:56:59.069Z,94.74
2016-08-12T00:57:59.267Z,95.41
2016-08-12T00:58:59.114Z,95.12
2016-08-12T00:59:59.032Z,95.32
2016-08-12T01:00:59.027Z,95.12
2016-08-12T01:01:59.022Z,95.6
2016-08-12T01:02:59.009Z,95.6
2016-08-12T01:03:59.028Z,95.12
2016-08-12T01:04:59.010Z,95.22
2016-08-12T01:05:58.985Z,95.98
2016-08-12T01:06:58.982Z,95.6
2016-08-12T01:07:58.975Z,95.6
2016-08-12T01:08:58.959Z,95.6
2016-08-12T01:09:58.953Z,95.7
2016-08-12T01:10:58.960Z,96.08
2016-08-12T01:11:58.960Z,95.79
2016-08-12T01:12:58.954Z,95.79
2016-08-12T01:13:58.924Z,94.37
2016-08-12T01:14:58.925Z,94.46
2016-08-12T01:15:58.935Z,94.65
2016-08-12T01:16:58.920Z,94.56
2016-08-12T01:17:58.892Z,94.56
2016-08-12T01:18:58.892Z,95.32
2016-08-12T01:19:58.881Z,95.51
2016-08-12T01:20:58.874Z,95.7
2016-08-12T01:21:59.615Z,95.6
2016-08-12T01:22:58.869Z,95.7
2016-08-12T01:23:58.900Z,95.7
2016-08-12T01:24:58.842Z,95.7
2016-08-12T01:25:58.841Z,96.08
2016-08-12T01:26:58.823Z,95.7
2016-08-12T01:27:58.808Z,96.55
2016-08-12T01:28:58.804Z,95.51
2016-08-12T01:29:58.802Z,95.51
2016-08-12T01:30:58.783Z,95.32
2016-08-12T01:31:58.789Z,95.79
2016-08-12T01:32:58.788Z,95.36
2016-08-12T01:33:58.765Z,95.51
2016-08-12T01:34:58.757Z,95.51
2016-08-12T01:35:58.746Z,95.51
2016-08-12T01:36:59.450Z,95.7
2016-08-12T01:37:58.737Z,95.32
2016-08-12T01:38:58.858Z,95.51
2016-08-12T01:39:58.756Z,95.7
2016-08-12T01:40:58.710Z,95.6
2016-08-12T01:41:58.700Z,96.08
2016-08-12T01:42:58.695Z,95.98
2016-08-12T01:43:58.679Z,96.36
2016-08-12T01:44:58.676Z,96.55
2016-08-12T01:45:58.663Z,96.55
2016-08-12T01:46:58.660Z,96.17
2016-08-12T01:47:58.649Z,96.36
2016-08-12T01:48:58.634Z,96.46
2016-08-12T01:49:58.630Z,95.7
2016-08-12T01:50:58.621Z,95.79
2016-08-12T01:51:58.622Z,95.6
2016-08-12T01:52:58.612Z,95.51
2016-08-12T01:53:58.614Z,95.98
2016-08-12T01:54:58.593Z,96.27
2016-08-12T01:55:58.584Z,96.17
2016-08-12T01:56:58.573Z,95.12
2016-08-12T01:57:58.573Z,95.32
2016-08-12T01:58:58.561Z,95.7
2016-08-12T01:59:58.550Z,95.6
2016-08-12T02:00:58.547Z,95.22
2016-08-12T02:01:58.541Z,95.89
2016-08-12T02:02:58.539Z,95.12
2016-08-12T02:03:58.522Z,95.79
2016-08-12T02:04:58.529Z,95.79
2016-08-12T02:05:58.511Z,95.89
2016-08-12T02:06:58.508Z,96.27
2016-08-12T02:07:58.503Z,96.36
2016-08-12T02:08:58.481Z,96.36
2016-08-12T02:09:59.261Z,96.36
2016-08-12T02:10:58.499Z,95.98
2016-08-12T02:11:58.466Z,95.7
2016-08-12T02:12:58.473Z,96.17
2016-08-12T02:13:58.449Z,95.6
2016-08-12T02:14:58.451Z,95.6
2016-08-12T02:15:58.434Z,95.12
2016-08-12T02:16:58.429Z,95.32
2016-08-12T02:17:58.419Z,95.79
2016-08-12T02:18:58.426Z,94.74
2016-08-12T02:19:58.398Z,95.12
2016-08-12T02:20:58.394Z,95.32
2016-08-12T02:21:58.385Z,95.98
2016-08-12T02:22:58.372Z,95.89
2016-08-12T02:23:58.368Z,95.22
2016-08-12T02:24:58.369Z,95.51
2016-08-12T02:25:58.363Z,95.7
2016-08-12T02:26:58.351Z,95.22
2016-08-12T02:27:58.340Z,94.74
2016-08-12T02:28:58.335Z,95.89
2016-08-12T02:29:58.349Z,95.6
2016-08-12T02:30:58.315Z,95.6
2016-08-12T02:31:58.320Z,95.51
2016-08-12T02:32:58.297Z,95.32
2016-08-12T02:33:58.306Z,95.12
2016-08-12T02:34:59.062Z,94.93
2016-08-12T02:35:58.280Z,94.27
2016-08-12T02:36:58.293Z,94.74
2016-08-12T02:37:58.260Z,95.7
2016-08-12T02:38:58.257Z,95.51
2016-08-12T02:39:58.259Z,95.79
2016-08-12T02:40:58.340Z,95.12
2016-08-12T02:41:58.248Z,95.12
2016-08-12T02:42:58.302Z,94.74
2016-08-12T02:43:58.214Z,95.12
2016-08-12T02:44:59.900Z,95.32
2016-08-12T02:45:58.919Z,94.93
2016-08-12T02:46:58.190Z,94.84
2016-08-12T02:47:58.198Z,94.84
2016-08-12T02:48:58.192Z,95.12
2016-08-12T02:49:58.180Z,94.93
2016-08-12T02:50:58.169Z,95.12
2016-08-12T02:51:58.162Z,95.03
2016-08-12T02:52:58.143Z,95.7
2016-08-12T02:53:58.142Z,95.41
2016-08-12T02:54:58.170Z,95.51
2016-08-12T02:55:58.122Z,95.22
2016-08-12T02:56:58.122Z,95.12
2016-08-12T02:57:58.124Z,94.74
2016-08-12T02:58:58.107Z,95.22
2016-08-12T02:59:58.814Z,95.12
2016-08-12T03:00:58.819Z,94.37
2016-08-12T03:01:58.076Z,94.37
2016-08-12T03:02:58.078Z,94.74
2016-08-12T03:03:58.069Z,94.93
2016-08-12T03:04:58.060Z,94.46
2016-08-12T03:05:58.055Z,95.32
2016-08-12T03:06:58.060Z,95.12
2016-08-12T03:07:58.031Z,95.12
2016-08-12T03:08:58.052Z,94.74
2016-08-12T03:09:58.017Z,95.41
2016-08-12T03:10:58.018Z,95.03
2016-08-12T03:11:58.044Z,94.93
2016-08-12T03:12:57.995Z,95.03
2016-08-12T03:13:58.002Z,95.32
2016-08-12T03:14:57.978Z,94.65
2016-08-12T03:15:57.972Z,94.74
2016-08-12T03:16:57.977Z,95.22
2016-08-12T03:17:57.969Z,95.12
2016-08-12T03:18:57.967Z,95.32
2016-08-12T03:19:57.956Z,95.89
2016-08-12T03:20:57.963Z,95.7
2016-08-12T03:21:57.944Z,95.6
2016-08-12T03:22:57.970Z,95.41
2016-08-12T03:23:57.911Z,94.93
2016-08-12T03:24:57.927Z,94.93
2016-08-12T03:25:57.983Z,94.93
2016-08-12T03:26:57.906Z,95.03
2016-08-12T03:27:57.875Z,94.93
2016-08-12T03:28:57.869Z,95.22
2016-08-12T03:29:57.873Z,96.17
2016-08-12T03:30:57.859Z,96.55
2016-08-12T03:31:57.857Z,95.7
2016-08-12T03:32:57.847Z,95.51
2016-08-12T03:33:57.841Z,96.17
2016-08-12T03:34:57.847Z,96.27
2016-08-12T03:35:57.826Z,95.41
2016-08-12T03:36:57.835Z,95.32
2016-08-12T03:37:57.814Z,95.7
2016-08-12T03:38:57.809Z,95.6
2016-08-12T03:39:57.783Z,95.03
2016-08-12T03:40:57.776Z,95.7
2016-08-12T03:41:57.780Z,95.79
2016-08-12T03:42:57.760Z,95.03
2016-08-12T03:43:57.762Z,95.7
2016-08-12T03:44:57.760Z,95.12
2016-08-12T03:45:57.752Z,95.6
2016-08-12T03:46:57.752Z,96.17
2016-08-12T03:47:57.740Z,96.17
2016-08-12T03:49:57.713Z,96.46
2016-08-12T03:50:57.696Z,96.55
2016-08-12T03:51:57.708Z,96.46
2016-08-12T03:52:57.699Z,95.98
2016-08-12T03:53:57.684Z,95.89
2016-08-12T03:54:57.671Z,96.17
2016-08-12T03:55:57.658Z,96.36
2016-08-12T03:56:57.649Z,95.7
2016-08-12T03:57:57.656Z,96.17
2016-08-12T03:58:57.649Z,96.17
2016-08-12T03:59:57.651Z,96.46
2016-08-12T04:00:57.630Z,96.27
2016-08-12T04:01:57.613Z,96.17
2016-08-12T04:02:57.609Z,96.36
2016-08-12T04:03:57.605Z,96.27
2016-08-12T04:04:57.593Z,96.17
2016-08-12T04:05:57.594Z,96.27
2016-08-12T04:06:58.352Z,96.27
2016-08-12T04:07:57.609Z,96.27
2016-08-12T04:08:57.567Z,96.08
2016-08-12T04:09:57.579Z,96.46
2016-08-12T04:10:57.555Z,95.41
2016-08-12T04:11:58.278Z,96.17
2016-08-12T04:12:57.532Z,96.27
2016-08-12T04:13:57.596Z,97.03
2016-08-12T04:14:57.644Z,96.27
2016-08-12T04:15:57.505Z,96.94
2016-08-12T04:16:57.505Z,96.84
2016-08-12T04:17:57.522Z,96.36
2016-08-12T04:19:57.485Z,96.55
2016-08-12T04:20:57.481Z,96.84
2016-08-12T04:21:57.480Z,96.84
2016-08-12T04:22:57.465Z,97.03
2016-08-12T04:23:57.464Z,97.51
2016-08-12T04:24:57.439Z,96.94
2016-08-12T04:25:57.434Z,97.31
2016-08-12T04:26:57.430Z,97.22
2016-08-12T04:27:57.441Z,97.41
2016-08-12T04:28:57.442Z,98.08
2016-08-12T04:29:57.442Z,97.7
2016-08-12T04:30:57.481Z,97.41
2016-08-12T04:31:57.458Z,97.41
2016-08-12T04:32:57.459Z,97.89
2016-08-12T04:34:57.379Z,97.51
2016-08-12T04:35:57.382Z,97.41
2016-08-12T04:36:57.391Z,97.6
2016-08-12T04:37:57.401Z,97.41
2016-08-12T04:38:57.411Z,97.6
2016-08-12T04:39:57.415Z,97.51
2016-08-12T04:40:57.418Z,97.41
2016-08-12T04:41:57.424Z,97.51
2016-08-12T04:42:57.431Z,98.41
2016-08-12T04:43:57.376Z,98.03
2016-08-12T04:44:57.388Z,98.13
2016-08-12T04:45:57.399Z,98.03
2016-08-12T04:46:57.358Z,98.13
2016-08-12T04:47:57.374Z,98.03
2016-08-12T04:49:57.327Z,98.13
2016-08-12T04:50:57.325Z,98.51
2016-08-12T04:51:57.332Z,98.13
2016-08-12T04:52:57.346Z,98.03
2016-08-12T04:53:57.352Z,98.13
2016-08-12T04:54:57.367Z,98.13
2016-08-12T04:55:57.375Z,98.41
2016-08-12T04:56:57.367Z,97.84
2016-08-12T04:57:57.372Z,98.03
2016-08-12T04:58:57.303Z,98.03
2016-08-12T04:59:57.296Z,98.22
2016-08-12T05:00:57.300Z,98.03
2016-08-12T05:01:57.357Z,97.46
2016-08-12T05:02:57.318Z,97.65
2016-08-12T05:03:57.326Z,97.36
2016-08-12T05:04:57.338Z,98.41
2016-08-12T05:05:57.310Z,98.22
2016-08-12T05:06:57.204Z,98.32
2016-08-12T05:07:57.220Z,98.22
2016-08-12T05:08:57.220Z,98.13
2016-08-12T05:09:57.228Z,97.84
2016-08-12T05:10:57.272Z,98.03
2016-08-12T05:11:57.275Z,98.41
2016-08-12T05:12:57.139Z,98.03
2016-08-12T05:13:57.154Z,97.75
2016-08-12T05:14:57.158Z,97.84
2016-08-12T05:15:57.171Z,97.46
2016-08-12T05:16:57.169Z,97.75
2016-08-12T05:17:57.278Z,96.89
2016-08-12T05:18:57.186Z,96.51
2016-08-12T05:19:57.198Z,96.89
2016-08-12T05:20:57.211Z,96.89
2016-08-12T05:21:57.359Z,96.98
2016-08-12T05:22:57.213Z,97.08
2016-08-12T05:23:57.127Z,97.17
2016-08-12T05:24:57.133Z,96.89
2016-08-12T05:25:57.245Z,97.46
2016-08-12T05:26:57.147Z,98.51
2016-08-12T05:27:57.160Z,97.46
2016-08-12T05:28:57.263Z,97.46
2016-08-12T05:29:57.268Z,97.56
2016-08-12T05:30:57.657Z,97.56
2016-08-12T05:31:57.022Z,96.89
2016-08-12T05:32:57.030Z,97.08
2016-08-12T05:33:57.000Z,97.08
2016-08-12T05:34:56.991Z,96.51
2016-08-12T05:35:57.118Z,97.17
2016-08-12T05:36:57.127Z,96.8
2016-08-12T05:37:57.127Z,96.89
2016-08-12T05:38:57.643Z,97.08
2016-08-12T05:39:56.962Z,97.17
2016-08-12T05:40:56.944Z,96.8
2016-08-12T05:41:57.702Z,96.89
2016-08-12T05:42:56.859Z,96.94
2016-08-12T05:43:56.857Z,97.13
2016-08-12T05:44:56.852Z,97.32
2016-08-12T05:45:56.837Z,97.41
2016-08-12T05:46:56.843Z,96.94
2016-08-12T05:47:56.830Z,96.56
2016-08-12T05:48:56.828Z,96.65
2016-08-12T05:49:56.818Z,96.36
2016-08-12T05:50:56.814Z,97.51
2016-08-12T05:51:56.809Z,97.32
2016-08-12T05:52:56.800Z,96.46
2016-08-12T05:53:56.796Z,96.46
2016-08-12T05:54:56.771Z,96.36
2016-08-12T05:55:56.762Z,96.56
2016-08-12T05:56:56.778Z,96.36
2016-08-12T05:57:56.750Z,96.56
2016-08-12T05:58:56.743Z,97.03
2016-08-12T05:59:56.737Z,96.84
2016-08-12T06:00:56.749Z,96.36
2016-08-12T06:01:56.723Z,96.46
2016-08-12T06:02:56.742Z,97.7
2016-08-12T06:03:56.714Z,97.41
2016-08-12T06:04:56.703Z,96.94
2016-08-12T06:05:56.694Z,97.89
2016-08-12T06:06:56.704Z,97.61
2016-08-12T06:07:56.684Z,97.7
2016-08-12T06:08:56.672Z,97.7
2016-08-12T06:09:56.664Z,97.13
2016-08-12T06:10:56.675Z,97.7
2016-08-12T06:11:56.652Z,97.51
2016-08-12T06:12:56.652Z,97.51
2016-08-12T06:13:56.639Z,97.51
2016-08-12T06:14:56.640Z,97.7
2016-08-12T06:15:56.786Z,98.08
2016-08-12T06:16:56.714Z,98.36
2016-08-12T06:17:56.693Z,98.27
2016-08-12T06:18:56.607Z,98.08
2016-08-12T06:19:56.603Z,98.27
2016-08-12T06:20:56.611Z,98.27
2016-08-12T06:21:56.655Z,98.56
2016-08-12T06:22:56.654Z,98.56
2016-08-12T06:23:56.616Z,99.32
2016-08-12T06:24:56.569Z,99.6
2016-08-12T06:25:56.554Z,99.41
2016-08-12T06:26:56.564Z,99.13
2016-08-12T06:27:56.582Z,99.51
2016-08-12T06:28:56.609Z,99.04
2016-08-12T06:29:56.557Z,98.94
2016-08-12T06:30:56.523Z,98.94
2016-08-12T06:31:56.514Z,99.22
2016-08-12T06:32:56.511Z,99.41
2016-08-12T06:33:56.513Z,99.04
2016-08-12T06:34:56.519Z,98.75
2016-08-12T06:35:56.499Z,99.22
2016-08-12T06:36:56.496Z,99.8
2016-08-12T06:37:56.475Z,99.99
2016-08-12T06:38:56.484Z,99.99
2016-08-12T06:39:56.461Z,99.99
2016-08-12T06:40:56.462Z,99.99
2016-08-12T06:41:56.486Z,99.8
2016-08-12T06:42:56.447Z,99.89
2016-08-12T06:43:56.452Z,99.56
2016-08-12T06:44:56.444Z,99.95
2016-08-12T06:45:56.421Z,99.75
2016-08-12T06:46:56.433Z,99.99
2016-08-12T06:47:56.426Z,99.37
2016-08-12T06:48:56.421Z,99.08
2016-08-12T06:49:56.408Z,99.08
2016-08-12T06:50:56.499Z,98.7
2016-08-12T06:51:56.392Z,99.27
2016-08-12T06:52:56.389Z,99.18
2016-08-12T06:53:56.375Z,98.61
2016-08-12T06:54:56.379Z,98.61
2016-08-12T06:55:56.357Z,98.61
2016-08-12T06:56:56.349Z,98.8
2016-08-12T06:57:56.355Z,98.51
2016-08-12T06:58:56.371Z,98.61
2016-08-12T06:59:56.342Z,98.32
2016-08-12T07:00:56.321Z,98.13
2016-08-12T07:01:57.030Z,98.42
2016-08-12T07:02:56.318Z,98.42
2016-08-12T07:03:56.313Z,98.42
2016-08-12T07:04:56.305Z,99.08
2016-08-12T07:05:56.342Z,98.03
2016-08-12T07:06:56.290Z,98.22
2016-08-12T07:07:56.283Z,98.8
2016-08-12T07:08:56.286Z,98.42
2016-08-12T07:09:56.287Z,98.7
2016-08-12T07:10:56.277Z,99.27
2016-08-12T07:11:56.255Z,99.27
2016-08-12T07:12:56.255Z,98.51
2016-08-12T07:13:56.247Z,99.08
2016-08-12T07:14:56.249Z,99.32
2016-08-12T07:15:56.252Z,98.37
2016-08-12T07:16:56.245Z,98.37
2016-08-12T07:17:56.230Z,98.66
2016-08-12T07:18:56.233Z,98.37
2016-08-12T07:19:56.201Z,98.75
2016-08-12T07:20:56.197Z,99.04
2016-08-12T07:21:56.193Z,97.32
2016-08-12T07:22:56.214Z,97.42
2016-08-12T07:23:56.194Z,98.56
2016-08-12T07:24:56.178Z,98.47
2016-08-12T07:25:56.185Z,98.37
2016-08-12T07:26:56.167Z,97.71
2016-08-12T07:27:56.179Z,98.18
2016-08-12T07:28:56.157Z,97.71
2016-08-12T07:29:56.156Z,97.22
2016-08-12T07:30:56.153Z,97.42
2016-08-12T07:31:56.137Z,98.27
2016-08-12T07:32:56.122Z,98.47
2016-08-12T07:33:56.126Z,98.66
2016-08-12T07:34:56.116Z,98.37
2016-08-12T07:35:56.144Z,98.66
2016-08-12T07:36:56.193Z,98.27
2016-08-12T07:37:56.119Z,98.66
2016-08-12T07:38:56.086Z,98.47
2016-08-12T07:39:56.092Z,98.37
2016-08-12T07:40:56.089Z,98.37
2016-08-12T07:41:56.080Z,98.47
2016-08-12T07:42:56.112Z,98.66
2016-08-12T07:43:56.067Z,98.37
2016-08-12T07:44:56.058Z,98.66
2016-08-12T07:45:56.073Z,98.66
2016-08-12T07:46:56.047Z,98.8
2016-08-12T07:47:56.036Z,98.23
2016-08-12T07:48:56.030Z,98.61
2016-08-12T07:49:56.042Z,98.61
2016-08-12T07:50:56.027Z,98.42
2016-08-12T07:51:56.012Z,98.42
2016-08-12T07:52:56.113Z,97.94
2016-08-12T07:53:56.221Z,97.66
2016-08-12T07:54:56.008Z,97.08
2016-08-12T07:55:56.003Z,97.37
2016-08-12T07:56:56.008Z,97.37
2016-08-12T07:57:56.024Z,97.66
2016-08-12T07:58:56.017Z,97.32
2016-08-12T07:59:56.022Z,96.7
2016-08-12T08:00:55.974Z,96.51
2016-08-12T08:01:55.968Z,96.03
2016-08-12T08:02:55.991Z,95.84
2016-08-12T08:03:55.958Z,95.98
2016-08-12T08:04:55.960Z,96.61
2016-08-12T08:05:55.954Z,96.51
2016-08-12T08:06:56.034Z,96.51
2016-08-12T08:07:56.040Z,96.8
2016-08-12T08:08:55.939Z,96.61
2016-08-12T08:09:55.975Z,95.79
2016-08-12T08:10:55.930Z,95.79
2016-08-12T08:11:55.912Z,96.8
2016-08-12T08:12:55.918Z,96.75
2016-08-12T08:13:55.922Z,96.75
2016-08-12T08:14:55.909Z,96.17
2016-08-12T08:15:55.891Z,96.75
2016-08-12T08:16:55.896Z,96.56
2016-08-12T08:17:55.913Z,97.32
2016-08-12T08:18:55.897Z,97.03
2016-08-12T08:19:55.864Z,97.13
2016-08-12T08:20:55.958Z,96.46
2016-08-12T08:21:55.870Z,96.75
2016-08-12T08:22:55.868Z,96.27
2016-08-12T08:23:55.846Z,95.89
2016-08-12T08:24:55.878Z,96.08
2016-08-12T08:25:55.831Z,96.56
2016-08-12T08:26:55.852Z,95.61
2016-08-12T08:27:55.940Z,95.32
2016-08-12T08:28:55.851Z,95.51
2016-08-12T08:29:55.830Z,95.22
2016-08-12T08:30:55.821Z,96.08
2016-08-12T08:31:55.799Z,96.37
2016-08-12T08:32:55.809Z,96.7
2016-08-12T08:33:55.800Z,96.7
2016-08-12T08:34:55.794Z,95.27
2016-08-12T08:35:55.783Z,94.79
2016-08-12T08:36:55.795Z,95.17
2016-08-12T08:37:55.785Z,95.46
2016-08-12T08:38:55.893Z,95.27
2016-08-12T08:39:55.771Z,93.16
2016-08-12T08:40:55.764Z,94.22
2016-08-12T08:41:55.753Z,93.07
2016-08-12T08:42:55.780Z,92.4
2016-08-12T08:43:55.746Z,93.74
2016-08-12T08:44:56.242Z,93.74
2016-08-12T08:45:55.754Z,93.84
2016-08-12T08:46:55.755Z,93.84
2016-08-12T08:47:55.721Z,94.22
2016-08-12T08:48:55.751Z,94.02
2016-08-12T08:49:55.724Z,94.84
2016-08-12T08:50:55.713Z,93.69
2016-08-12T08:51:55.703Z,94.26
2016-08-12T08:52:55.699Z,92.64
2016-08-12T08:53:55.697Z,92.25
2016-08-12T08:54:55.699Z,92.83
2016-08-12T08:55:55.687Z,91.78
2016-08-12T08:56:55.682Z,91.59
2016-08-12T08:57:55.727Z,92.35
2016-08-12T08:58:55.677Z,92.64
2016-08-12T08:59:55.678Z,92.64
2016-08-12T09:00:55.683Z,92.16
2016-08-12T09:01:55.674Z,93.02
2016-08-12T09:02:55.691Z,92.54
2016-08-12T09:03:55.664Z,93.21
2016-08-12T09:05:55.763Z,94.02
2016-08-12T09:06:55.732Z,94.22
2016-08-12T09:07:55.731Z,95.32
2016-08-12T09:08:55.751Z,95.12
2016-08-12T09:09:55.764Z,94.93
2016-08-12T09:10:55.772Z,94.65
2016-08-12T09:11:55.738Z,94.07
2016-08-12T09:12:55.732Z,95.17
2016-08-12T09:13:55.716Z,95.17
2016-08-12T09:14:55.732Z,95.36
2016-08-12T09:15:55.610Z,93.55
2016-08-12T09:16:55.725Z,93.84
2016-08-12T09:17:55.725Z,93.55
2016-08-12T09:18:55.754Z,94.31
2016-08-12T09:20:55.595Z,93.74
2016-08-12T09:21:55.718Z,94.07
2016-08-12T09:22:55.709Z,92.16
2016-08-12T09:23:55.586Z,91.68
2016-08-12T09:24:55.710Z,91.58
2016-08-12T09:25:55.574Z,91.68
2016-08-12T09:26:55.567Z,91.3
2016-08-12T09:27:55.565Z,91.06
2016-08-12T09:28:55.544Z,90.01
2016-08-12T09:29:55.693Z,90.48
2016-08-12T09:30:55.549Z,91.16
2016-08-12T09:31:55.541Z,91.06
2016-08-12T09:32:55.545Z,91.06
2016-08-12T09:33:55.543Z,91.16
2016-08-12T09:35:55.519Z,92.3
2016-08-12T09:36:55.546Z,93.07
2016-08-12T09:37:55.520Z,93.16
2016-08-12T09:38:55.512Z,93.26
2016-08-12T09:39:55.514Z,93.16
2016-08-12T09:40:55.505Z,92.3
2016-08-12T09:41:55.509Z,92.78
2016-08-12T09:42:55.706Z,93.16
2016-08-12T09:43:55.490Z,93.07
2016-08-12T09:44:55.484Z,92.88
2016-08-12T09:45:55.490Z,93.84
2016-08-12T09:46:55.476Z,94.65
2016-08-12T09:47:55.484Z,94.7
2016-08-12T09:48:55.476Z,94.55
2016-08-12T09:49:55.462Z,94.65
2016-08-12T09:50:55.469Z,94.46
2016-08-12T09:51:55.476Z,94.36
2016-08-12T09:52:55.446Z,94.55
2016-08-12T09:53:55.445Z,95.03
2016-08-12T09:54:55.443Z,95.32
2016-08-12T09:55:55.433Z,94.65
2016-08-12T09:56:55.436Z,94.74
2016-08-12T09:57:55.450Z,95.41
2016-08-12T09:58:55.427Z,95.12
2016-08-12T09:59:55.427Z,94.89
2016-08-12T10:00:55.425Z,94.41
2016-08-12T10:01:55.413Z,94.79
2016-08-12T10:02:55.410Z,94.12
2016-08-12T10:03:55.412Z,94.79
2016-08-12T10:04:55.403Z,94.7
2016-08-12T10:05:55.399Z,95.36
2016-08-12T10:06:55.403Z,95.12
2016-08-12T10:07:55.384Z,95.7
2016-08-12T10:08:55.411Z,95.51
2016-08-12T10:09:55.393Z,96.08
2016-08-12T10:10:55.378Z,95.75
2016-08-12T10:11:55.376Z,95.98
2016-08-12T10:12:55.385Z,95.98
2016-08-12T10:13:55.386Z,95.98
2016-08-12T10:14:55.428Z,95.98
2016-08-12T10:15:55.371Z,96.56
2016-08-12T10:16:55.347Z,96.84
2016-08-12T10:17:55.344Z,96.66
2016-08-12T10:18:55.340Z,96.75
2016-08-12T10:19:55.339Z,97.8
2016-08-12T10:20:55.341Z,97.23
2016-08-12T10:21:55.347Z,97.99
2016-08-12T10:22:55.326Z,97.8
2016-08-12T10:23:55.323Z,98.57
2016-08-12T10:24:55.338Z,98.85
2016-08-12T10:25:55.318Z,97.99
2016-08-12T10:26:55.313Z,98.28
2016-08-12T10:27:55.299Z,97.99
2016-08-12T10:28:55.312Z,98.75
2016-08-12T10:29:55.323Z,98.38
2016-08-12T10:30:55.286Z,96.84
2016-08-12T10:31:55.280Z,94.74
2016-08-12T10:32:55.288Z,96.18
2016-08-12T10:33:55.279Z,96.56
2016-08-12T10:34:55.299Z,96.75
2016-08-12T10:35:55.274Z,97.61
2016-08-12T10:36:55.279Z,98.09
2016-08-12T10:37:55.274Z,95.98
2016-08-12T10:38:55.256Z,95.32
2016-08-12T10:39:55.251Z,95.89
2016-08-12T10:40:55.251Z,96.84
2016-08-12T10:41:55.259Z,96.94
2016-08-12T10:42:55.244Z,97.61
2016-08-12T10:43:55.230Z,98.18
2016-08-12T10:44:55.230Z,99.04
2016-08-12T10:45:55.927Z,98.28
2016-08-12T10:46:55.231Z,98.85
2016-08-12T10:47:55.227Z,97.37
2016-08-12T10:48:55.214Z,97.37
2016-08-12T10:49:55.208Z,97.18
2016-08-12T10:50:55.206Z,94.89
2016-08-12T10:51:55.214Z,95.46
2016-08-12T10:52:55.200Z,94.65
2016-08-12T10:53:55.208Z,95.61
2016-08-12T10:54:55.183Z,96.75
2016-08-12T10:55:55.186Z,98.52
2016-08-12T10:56:55.171Z,99
2016-08-12T10:57:55.174Z,98.04
2016-08-12T10:58:55.177Z,97.47
2016-08-12T10:59:55.158Z,98.76
2016-08-12T11:00:55.155Z,97.52
2016-08-12T11:01:55.159Z,96.89
2016-08-12T11:02:55.162Z,96.32
2016-08-12T11:03:55.171Z,94.5
2016-08-12T11:04:55.147Z,94.98
2016-08-12T11:05:55.165Z,95.46
2016-08-12T11:06:55.131Z,94.5
2016-08-12T11:07:55.142Z,92.87
2016-08-12T11:08:55.146Z,91.87
2016-08-12T11:09:55.177Z,92.44
2016-08-12T11:10:55.120Z,92.63
2016-08-12T11:11:55.131Z,92.83
2016-08-12T11:12:55.114Z,93.12
2016-08-12T11:13:55.122Z,93.07
2016-08-12T11:14:55.103Z,92.88
2016-08-12T11:15:55.102Z,93.55
2016-08-12T11:16:55.098Z,94.12
2016-08-12T11:17:55.105Z,94.5
2016-08-12T11:18:55.087Z,94.98
2016-08-12T11:19:55.080Z,95.46
2016-08-12T11:20:55.078Z,96.22
2016-08-12T11:21:55.080Z,96.7
2016-08-12T11:22:55.096Z,96.32
2016-08-12T11:23:55.878Z,96.8
2016-08-12T11:24:55.118Z,96.8
2016-08-12T11:25:55.081Z,94.7
2016-08-12T11:26:55.077Z,93.64
2016-08-12T11:27:55.047Z,94.89
2016-08-12T11:29:55.051Z,95.17
2016-08-12T11:30:55.051Z,94.7
2016-08-12T11:31:55.052Z,95.56
2016-08-12T11:32:55.040Z,95.84
2016-08-12T11:33:55.074Z,95.75
2016-08-12T11:34:55.027Z,95.94
2016-08-12T11:35:55.033Z,96.32
2016-08-12T11:36:55.024Z,96.13
2016-08-12T11:37:55.010Z,95.51
2016-08-12T11:38:55.016Z,96.08
2016-08-12T11:39:55.009Z,95.79
2016-08-12T11:40:55.008Z,95.98
2016-08-12T11:41:55.040Z,96.08
2016-08-12T11:42:55.008Z,95.51
2016-08-12T11:43:55.017Z,95.22
2016-08-12T11:44:54.994Z,94.65
2016-08-12T11:45:55.011Z,94.55
2016-08-12T11:46:54.987Z,95.12
2016-08-12T11:47:55.004Z,95.51
2016-08-12T11:48:54.978Z,95.61
2016-08-12T11:49:54.965Z,95.79
2016-08-12T11:50:54.987Z,95.7
2016-08-12T11:51:54.958Z,95.51
2016-08-12T11:52:54.988Z,95.22
2016-08-12T11:53:54.978Z,95.31
2016-08-12T11:54:54.971Z,96.37
2016-08-12T11:55:54.952Z,96.37
2016-08-12T11:56:54.955Z,95.61
2016-08-12T11:57:54.955Z,95.56
2016-08-12T11:58:54.943Z,95.46
2016-08-12T11:59:54.951Z,95.56
2016-08-12T12:00:54.925Z,94.79
2016-08-12T12:01:54.939Z,94.4
2016-08-12T12:02:54.932Z,91.53
2016-08-12T12:03:54.941Z,91.82
2016-08-12T12:04:54.944Z,93.93
2016-08-12T12:05:54.926Z,92.82
2016-08-12T12:06:54.908Z,92.73
2016-08-12T12:07:54.923Z,93.21
2016-08-12T12:08:54.904Z,93.59
2016-08-12T12:09:54.912Z,93.21
2016-08-12T12:10:54.892Z,93.02
2016-08-12T12:11:54.897Z,91.49
2016-08-12T12:12:54.900Z,91.96
2016-08-12T12:13:54.887Z,92.63
2016-08-12T12:14:54.917Z,91.77
2016-08-12T12:15:54.888Z,92.73
2016-08-12T12:16:54.888Z,91.19
2016-08-12T12:17:54.897Z,91.19
2016-08-12T12:18:54.870Z,91.86
2016-08-12T12:19:54.880Z,91.96
2016-08-12T12:20:54.906Z,89.86
2016-08-12T12:21:54.872Z,90.72
2016-08-12T12:22:54.869Z,91.63
2016-08-12T12:23:54.879Z,90.77
2016-08-12T12:24:54.855Z,90.09
2016-08-12T12:25:54.867Z,91.15
2016-08-12T12:26:54.855Z,91.82
2016-08-12T12:27:54.861Z,92.21
2016-08-12T12:28:54.840Z,92.49
2016-08-12T12:29:54.865Z,93.26
2016-08-12T12:30:54.843Z,94.21
2016-08-12T12:31:54.832Z,94.02
2016-08-12T12:32:54.857Z,92.49
2016-08-12T12:33:55.540Z,92.4
2016-08-12T12:34:54.833Z,92.58
2016-08-12T12:35:54.850Z,93.35
2016-08-12T12:36:54.840Z,93.35
2016-08-12T12:37:54.840Z,93.16
2016-08-12T12:38:54.827Z,93.93
2016-08-12T12:39:54.811Z,93.83
2016-08-12T12:40:54.822Z,93.64
2016-08-12T12:41:54.815Z,94.6
2016-08-12T12:42:54.808Z,94.6
2016-08-12T12:43:54.830Z,95.65
2016-08-12T12:44:54.819Z,94.79
2016-08-12T12:45:54.797Z,94.64
2016-08-12T12:46:54.792Z,94.35
2016-08-12T12:47:54.793Z,94.84
2016-08-12T12:48:54.783Z,95.75
2016-08-12T12:49:54.793Z,95.98
2016-08-12T12:50:54.808Z,95.51
2016-08-12T12:51:54.782Z,95.31
2016-08-12T12:52:54.785Z,94.35
2016-08-12T12:53:55.521Z,94.45
2016-08-12T12:54:54.772Z,94.5
2016-08-12T12:55:54.762Z,94.6
2016-08-12T12:56:54.759Z,94.98
2016-08-12T12:57:54.760Z,94.69
2016-08-12T12:58:54.757Z,94.89
2016-08-12T12:59:54.760Z,94.69
2016-08-12T13:00:54.762Z,95.46
2016-08-12T13:01:54.746Z,95.65
2016-08-12T13:02:54.750Z,95.51
2016-08-12T13:03:55.481Z,94.84